Time;durP1;ratioP1;P1;durP2;ratioP2;P2;SDS_P1;SDS_P2;PMS_P1;PMS_P2;Temp;Humidity;BMP_temperature;BMP_pressure;BME280_temperature;BME280_humidity;BME280_pressure;Samples;Min_cycle;Max_cycle;Signal;HPM_P1;HPM_P2
2021/12/07 00:00:41;;;;;;;26.53;17.37;;;1.30;99.90;;;;;;4984975;28;20676;-71
2021/12/07 00:03:07;;;;;;;26.50;18.40;;;1.40;99.90;;;;;;4985128;28;20265;-72
2021/12/07 00:05:33;;;;;;;26.63;18.50;;;1.50;99.90;;;;;;4989068;28;20190;-72
2021/12/07 00:07:59;;;;;;;24.93;17.87;;;1.50;99.90;;;;;;4986334;28;20218;-71
2021/12/07 00:10:24;;;;;;;24.70;17.40;;;1.50;99.90;;;;;;4988531;28;20565;-72
2021/12/07 00:12:50;;;;;;;24.10;16.20;;;1.50;99.90;;;;;;4987120;28;20185;-72
2021/12/07 00:15:21;;;;;;;26.27;17.03;;;1.50;99.90;;;;;;4964868;28;20535;-71
2021/12/07 00:17:47;;;;;;;23.40;16.10;;;1.40;99.90;;;;;;4990633;28;20691;-71
2021/12/07 00:20:15;;;;;;;20.73;14.67;;;1.30;99.90;;;;;;4998652;28;20193;-71
2021/12/07 00:22:44;;;;;;;23.90;16.60;;;1.20;99.90;;;;;;4984964;28;20236;-71
2021/12/07 00:25:10;;;;;;;21.70;16.17;;;1.20;99.90;;;;;;4988921;28;20178;-71
2021/12/07 00:27:36;;;;;;;22.33;16.07;;;1.10;99.90;;;;;;4992107;28;20206;-71
2021/12/07 00:30:05;;;;;;;27.77;16.47;;;1.20;99.90;;;;;;4992710;28;20190;-71
2021/12/07 00:32:33;;;;;;;23.70;17.17;;;1.10;99.90;;;;;;4981008;28;20573;-72
2021/12/07 00:37:48;;;;;;;23.77;15.47;;;1.00;99.90;;;;;;4991872;28;20901;-72
2021/12/07 00:40:17;;;;;;;27.17;17.87;;;1.00;99.90;;;;;;4991413;28;20269;-72
2021/12/07 00:42:43;;;;;;;31.63;17.80;;;0.90;99.90;;;;;;4983170;28;20189;-72
2021/12/07 00:45:10;;;;;;;22.83;15.87;;;0.90;99.90;;;;;;4991213;28;20182;-72
2021/12/07 00:47:35;;;;;;;24.30;16.53;;;0.90;99.90;;;;;;4991820;28;20565;-72
2021/12/07 00:50:02;;;;;;;25.03;15.13;;;0.70;99.90;;;;;;4994602;28;20189;-72
2021/12/07 00:52:27;;;;;;;21.10;14.80;;;0.70;99.90;;;;;;4988654;28;20189;-72
2021/12/07 00:54:53;;;;;;;24.47;14.87;;;0.80;99.90;;;;;;4981049;28;20187;-72
2021/12/07 00:57:20;;;;;;;24.70;14.97;;;0.70;99.90;;;;;;4994117;28;20198;-72
2021/12/07 00:59:46;;;;;;;29.43;14.47;;;0.70;99.90;;;;;;4982392;28;20265;-72
2021/12/07 01:02:12;;;;;;;22.33;17.53;;;0.70;99.90;;;;;;4980744;28;20268;-72
2021/12/07 01:04:38;;;;;;;40.70;16.97;;;0.70;99.90;;;;;;4983400;28;20186;-72
2021/12/07 01:07:11;;;;;;;31.77;16.83;;;0.70;99.90;;;;;;4990128;28;20675;-72
2021/12/07 01:24:38;;;;;;;27.73;16.83;;;0.70;99.90;;;;;;4994027;28;20209;-72
2021/12/07 01:26:03;;;;;;;41.03;18.40;;;0.80;99.90;;;;;;4982522;28;20262;-71
2021/12/07 01:28:35;;;;;;;22.03;16.57;;;0.70;99.90;;;;;;4990916;28;20210;-71
2021/12/07 01:39:34;;;;;;;25.70;18.07;;;0.70;99.90;;;;;;4994300;28;20193;-71
2021/12/07 01:52:32;;;;;;;22.60;17.23;;;0.90;99.90;;;;;;4978315;28;20238;-72
2021/12/07 02:00:15;;;;;;;24.30;17.60;;;0.90;99.90;;;;;;4992630;28;21486;-72
2021/12/07 02:02:41;;;;;;;25.03;17.47;;;0.90;99.90;;;;;;4987955;28;20198;-72
2021/12/07 02:05:08;;;;;;;29.57;19.17;;;0.90;99.90;;;;;;4987783;28;20225;-71
2021/12/07 02:07:34;;;;;;;41.73;19.37;;;0.90;99.90;;;;;;4990742;28;20202;-71
2021/12/07 02:10:05;;;;;;;32.53;18.20;;;0.90;99.90;;;;;;4984981;28;20627;-71
2021/12/07 02:12:41;;;;;;;25.67;18.60;;;0.80;99.90;;;;;;4986414;28;20183;-71
2021/12/07 02:15:10;;;;;;;25.57;17.40;;;0.80;99.90;;;;;;4988635;28;20266;-71
2021/12/07 02:17:36;;;;;;;27.03;18.57;;;0.80;99.90;;;;;;4990992;28;20529;-71
2021/12/07 02:20:03;;;;;;;28.47;19.00;;;0.80;99.90;;;;;;4987948;28;20209;-72
2021/12/07 02:22:28;;;;;;;28.60;18.57;;;0.70;99.90;;;;;;4992016;28;20182;-71
2021/12/07 02:24:54;;;;;;;24.73;17.67;;;0.70;99.90;;;;;;4988703;28;20189;-71
2021/12/07 02:27:20;;;;;;;25.43;18.37;;;0.80;99.90;;;;;;4991689;28;20198;-71
2021/12/07 02:29:45;;;;;;;22.93;17.20;;;0.90;99.90;;;;;;4989649;28;20217;-72
2021/12/07 02:32:11;;;;;;;23.60;17.17;;;0.90;99.90;;;;;;4993249;28;20589;-72
2021/12/07 02:34:42;;;;;;;23.10;17.10;;;0.90;99.90;;;;;;4992696;28;20567;-72
2021/12/07 02:37:09;;;;;;;25.70;17.67;;;0.80;99.90;;;;;;4993293;28;20711;-72
2021/12/07 02:39:37;;;;;;;24.33;17.90;;;0.80;99.90;;;;;;4993106;28;20193;-72
2021/12/07 02:42:04;;;;;;;22.53;16.83;;;0.90;99.90;;;;;;4988797;28;20201;-72
2021/12/07 02:44:32;;;;;;;26.20;18.27;;;0.90;99.90;;;;;;4990823;28;20185;-72
2021/12/07 02:46:57;;;;;;;26.00;18.80;;;0.80;99.90;;;;;;4991368;28;20202;-72
2021/12/07 02:49:23;;;;;;;25.40;18.53;;;0.80;99.90;;;;;;4991962;28;20213;-71
2021/12/07 02:51:48;;;;;;;23.70;17.07;;;0.70;99.90;;;;;;4988748;28;20197;-71
2021/12/07 02:54:14;;;;;;;22.87;17.43;;;0.70;99.90;;;;;;4989827;28;20264;-71
2021/12/07 02:56:40;;;;;;;25.43;17.83;;;0.70;99.90;;;;;;4988053;28;20692;-72
2021/12/07 02:59:06;;;;;;;25.43;18.60;;;0.70;99.90;;;;;;4988395;28;20186;-72
2021/12/07 03:01:37;;;;;;;24.50;18.10;;;0.70;99.90;;;;;;4988261;28;20178;-71
2021/12/07 03:04:10;;;;;;;25.83;18.00;;;0.80;99.90;;;;;;4987065;28;20190;-72
2021/12/07 03:26:16;;;;;;;22.43;18.00;;;0.60;99.90;;;;;;4985616;28;20251;-71
2021/12/07 03:28:40;;;;;;;28.63;19.93;;;0.60;99.90;;;;;;4979682;28;20253;-72
2021/12/07 03:31:07;;;;;;;25.27;17.27;;;0.70;99.90;;;;;;4987864;28;20269;-71
2021/12/07 03:33:33;;;;;;;24.43;17.47;;;0.70;99.90;;;;;;4985776;28;20182;-71
2021/12/07 03:35:59;;;;;;;22.70;16.97;;;0.80;99.90;;;;;;4990993;28;20182;-71
2021/12/07 03:38:26;;;;;;;23.43;17.10;;;0.80;99.90;;;;;;4984934;28;20201;-72
2021/12/07 03:40:51;;;;;;;25.87;17.10;;;0.80;99.90;;;;;;4986256;28;20561;-73
2021/12/07 03:43:18;;;;;;;21.17;16.80;;;0.90;99.90;;;;;;4972760;28;20268;-73
2021/12/07 03:45:43;;;;;;;23.87;17.07;;;0.90;99.90;;;;;;4988937;28;20182;-74
2021/12/07 03:48:11;;;;;;;21.97;17.20;;;0.80;99.90;;;;;;4987826;28;20583;-73
2021/12/07 03:50:37;;;;;;;23.83;17.47;;;0.80;99.90;;;;;;4984811;28;20182;-72
2021/12/07 03:53:03;;;;;;;23.90;17.40;;;0.80;99.90;;;;;;4978235;28;20201;-72
2021/12/07 03:55:29;;;;;;;24.07;17.97;;;0.80;99.90;;;;;;4986227;28;20649;-73
2021/12/07 03:57:55;;;;;;;22.87;16.93;;;0.80;99.90;;;;;;4973903;28;20200;-72
2021/12/07 04:00:24;;;;;;;21.77;16.63;;;0.70;99.90;;;;;;4985758;28;20190;-72
2021/12/07 04:02:51;;;;;;;24.93;17.07;;;0.70;99.90;;;;;;4986548;28;20851;-72
2021/12/07 04:05:19;;;;;;;22.10;17.07;;;0.70;99.90;;;;;;4987891;28;20204;-73
2021/12/07 04:07:45;;;;;;;21.93;16.17;;;0.80;99.90;;;;;;4986605;28;20284;-72
2021/12/07 04:10:14;;;;;;;20.73;16.50;;;0.80;99.90;;;;;;4998127;28;20224;-73
2021/12/07 04:12:40;;;;;;;23.63;17.60;;;0.90;99.90;;;;;;4989910;28;20189;-73
2021/12/07 04:15:08;;;;;;;21.87;16.30;;;1.00;99.90;;;;;;4996227;28;20186;-73
2021/12/07 04:17:34;;;;;;;21.70;16.13;;;1.00;99.90;;;;;;4993668;28;20209;-73
2021/12/07 04:20:00;;;;;;;22.50;16.27;;;1.00;99.90;;;;;;4998419;28;20229;-72
2021/12/07 04:22:26;;;;;;;22.57;17.00;;;0.90;99.90;;;;;;4987839;28;20193;-72
2021/12/07 04:24:52;;;;;;;25.97;15.80;;;0.90;99.90;;;;;;4986004;28;20286;-72
2021/12/07 04:27:18;;;;;;;21.63;17.03;;;0.90;99.90;;;;;;4984259;28;20699;-72
2021/12/07 04:29:45;;;;;;;23.27;17.73;;;0.90;99.90;;;;;;4987884;28;20213;-72
2021/12/07 04:32:11;;;;;;;19.63;15.87;;;0.90;99.90;;;;;;4990212;28;20209;-73
2021/12/07 04:34:37;;;;;;;21.07;16.00;;;0.90;99.90;;;;;;5001621;28;20190;-72
2021/12/07 04:37:03;;;;;;;22.13;16.27;;;0.80;99.90;;;;;;4981791;28;20206;-72
2021/12/07 04:39:29;;;;;;;21.33;16.80;;;0.70;99.90;;;;;;4992075;28;20280;-72
2021/12/07 04:41:54;;;;;;;25.00;16.73;;;0.80;99.90;;;;;;4973540;28;20214;-72
2021/12/07 04:44:22;;;;;;;24.07;16.77;;;0.80;99.90;;;;;;5002380;28;20234;-72
2021/12/07 04:47:08;;;;;;;22.97;17.63;;;0.70;99.90;;;;;;4997030;28;20230;-72
2021/12/07 05:00:11;;;;;;;19.83;15.53;;;0.80;99.90;;;;;;4998947;28;20684;-71
2021/12/07 05:02:39;;;;;;;21.97;16.90;;;0.70;99.90;;;;;;5006213;28;20181;-72
2021/12/07 05:05:05;;;;;;;22.27;16.50;;;0.70;99.90;;;;;;4997827;28;20605;-72
2021/12/07 05:07:38;;;;;;;23.57;15.67;;;0.70;99.90;;;;;;5003336;28;20201;-72
2021/12/07 05:16:11;;;;;;;19.03;14.10;;;0.70;99.90;;;;;;5001566;28;20178;-71
2021/12/07 05:18:19;;;;;;;18.60;13.30;;;0.70;99.90;;;;;;4993041;28;20286;-71
2021/12/07 05:39:44;;;;;;;16.90;12.27;;;0.50;99.90;;;;;;5001570;28;20260;-72
2021/12/07 05:42:12;;;;;;;16.03;12.73;;;0.50;99.90;;;;;;4993994;28;20225;-72
2021/12/07 05:44:38;;;;;;;15.30;12.40;;;0.60;99.90;;;;;;4994335;28;20178;-72
2021/12/07 05:47:05;;;;;;;19.60;12.00;;;0.60;99.90;;;;;;4994511;28;20201;-72
2021/12/07 05:49:31;;;;;;;15.40;11.93;;;0.60;99.90;;;;;;4989616;28;20210;-72
2021/12/07 05:51:56;;;;;;;15.30;12.40;;;0.60;99.90;;;;;;4987642;28;20175;-72
2021/12/07 05:54:22;;;;;;;17.23;11.60;;;0.60;99.90;;;;;;4992899;28;20240;-72
2021/12/07 05:56:48;;;;;;;13.07;11.27;;;0.60;99.90;;;;;;4993098;28;20763;-72
2021/12/07 05:59:14;;;;;;;17.30;12.17;;;0.70;99.90;;;;;;4991979;28;20178;-72
2021/12/07 06:01:40;;;;;;;15.27;11.77;;;0.60;99.90;;;;;;4992745;28;20178;-72
2021/12/07 06:04:06;;;;;;;16.73;12.13;;;0.70;99.90;;;;;;4992645;28;20213;-72
2021/12/07 06:06:31;;;;;;;14.20;11.83;;;0.70;99.90;;;;;;4991861;28;20193;-72
2021/12/07 06:08:57;;;;;;;14.50;11.83;;;0.70;99.90;;;;;;4991714;28;20206;-72
2021/12/07 06:11:24;;;;;;;16.30;12.00;;;0.80;99.90;;;;;;4992021;28;20192;-72
2021/12/07 06:13:50;;;;;;;14.73;10.83;;;0.80;99.90;;;;;;4990557;28;20182;-72
2021/12/07 06:16:16;;;;;;;11.57;8.50;;;0.80;99.90;;;;;;4989521;28;20174;-72
2021/12/07 06:18:43;;;;;;;10.23;8.97;;;0.80;99.90;;;;;;4986034;28;20529;-72
2021/12/07 06:21:09;;;;;;;12.13;10.00;;;0.80;99.90;;;;;;4994793;28;20198;-72
2021/12/07 06:23:35;;;;;;;12.07;8.87;;;0.80;99.90;;;;;;4997677;28;20722;-72
2021/12/07 06:26:02;;;;;;;11.30;9.97;;;0.80;99.90;;;;;;4992915;28;20238;-72
2021/12/07 06:28:28;;;;;;;11.93;10.43;;;0.80;99.90;;;;;;4991912;28;20309;-72
2021/12/07 06:30:53;;;;;;;13.33;8.73;;;0.80;99.90;;;;;;4995793;28;20204;-72
2021/12/07 06:33:23;;;;;;;13.70;9.67;;;0.70;99.90;;;;;;4997721;28;20574;-72
2021/12/07 06:35:50;;;;;;;10.47;9.07;;;0.80;99.90;;;;;;4993113;28;20217;-72
2021/12/07 06:38:18;;;;;;;10.57;9.43;;;0.80;99.90;;;;;;4998463;28;20244;-72
2021/12/07 06:40:45;;;;;;;10.70;9.57;;;1.00;99.90;;;;;;5003804;28;20177;-72
2021/12/07 06:43:11;;;;;;;11.30;10.13;;;1.00;99.90;;;;;;4992528;28;20196;-72
2021/12/07 06:45:36;;;;;;;10.50;9.30;;;1.00;99.90;;;;;;4975809;28;20280;-72
2021/12/07 06:48:02;;;;;;;11.30;9.73;;;1.00;99.90;;;;;;4991976;28;20213;-72
2021/12/07 06:50:28;;;;;;;11.60;10.40;;;1.00;99.90;;;;;;4975958;28;20189;-72
2021/12/07 06:52:54;;;;;;;12.10;10.90;;;1.10;99.90;;;;;;4995351;28;20193;-71
2021/12/07 06:55:20;;;;;;;8.67;7.63;;;1.00;99.90;;;;;;4998310;28;20188;-72
2021/12/07 06:57:46;;;;;;;13.10;11.80;;;1.10;99.90;;;;;;4991468;28;20205;-72
2021/12/07 07:00:12;;;;;;;10.60;9.50;;;1.10;99.90;;;;;;4991457;28;20240;-73
2021/12/07 07:02:38;;;;;;;11.20;10.10;;;1.10;99.90;;;;;;4990525;28;20204;-73
2021/12/07 07:05:05;;;;;;;11.40;9.67;;;1.20;99.90;;;;;;4989776;28;20194;-73
2021/12/07 07:07:33;;;;;;;13.23;10.33;;;1.10;99.90;;;;;;4972856;28;20210;-74
2021/12/07 07:09:58;;;;;;;12.07;9.90;;;1.10;99.90;;;;;;4995305;28;20677;-73
2021/12/07 07:12:24;;;;;;;12.13;10.77;;;1.20;99.90;;;;;;4989658;28;20189;-73
2021/12/07 07:14:51;;;;;;;14.30;10.27;;;1.20;99.90;;;;;;4984593;28;20221;-73
2021/12/07 07:17:16;;;;;;;12.00;10.27;;;1.10;99.90;;;;;;4988961;28;20276;-74
2021/12/07 07:19:42;;;;;;;14.30;11.30;;;1.20;99.90;;;;;;4987814;28;20238;-74
2021/12/07 07:22:08;;;;;;;12.77;10.97;;;1.20;99.90;;;;;;4988893;28;20194;-73
2021/12/07 07:24:35;;;;;;;15.47;10.80;;;1.20;99.90;;;;;;4989071;28;20190;-73
2021/12/07 07:27:01;;;;;;;13.03;11.70;;;1.30;99.90;;;;;;4988875;28;20714;-73
2021/12/07 07:29:27;;;;;;;13.83;12.00;;;1.30;99.90;;;;;;4986159;28;20212;-72
2021/12/07 07:31:53;;;;;;;13.53;12.00;;;1.20;99.90;;;;;;4988557;28;20178;-72
2021/12/07 07:34:19;;;;;;;13.10;10.70;;;1.30;99.90;;;;;;4997152;28;20275;-71
2021/12/07 07:36:44;;;;;;;14.07;12.03;;;1.40;99.90;;;;;;4993059;28;20213;-72
2021/12/07 07:39:11;;;;;;;11.70;10.30;;;1.40;99.90;;;;;;4988781;28;20182;-72
2021/12/07 07:41:37;;;;;;;11.57;10.30;;;1.40;99.90;;;;;;4986349;28;20194;-72
2021/12/07 07:44:04;;;;;;;10.83;9.63;;;1.40;99.90;;;;;;4991197;28;20193;-72
2021/12/07 07:46:30;;;;;;;11.13;8.93;;;1.40;99.90;;;;;;4981210;28;20193;-72
2021/12/07 07:48:56;;;;;;;16.17;12.70;;;1.50;99.90;;;;;;4983003;28;20206;-72
2021/12/07 07:51:22;;;;;;;12.37;11.07;;;1.50;99.90;;;;;;4981462;28;20599;-73
2021/12/07 07:53:50;;;;;;;8.23;7.37;;;1.60;99.90;;;;;;4978843;28;20189;-71
2021/12/07 07:56:17;;;;;;;14.03;11.47;;;1.60;99.90;;;;;;4993467;28;20173;-71
2021/12/07 07:58:43;;;;;;;10.97;9.13;;;1.70;99.90;;;;;;4984804;28;20249;-71
2021/12/07 08:01:09;;;;;;;11.47;10.27;;;1.70;99.90;;;;;;4979714;28;20181;-71
2021/12/07 08:03:35;;;;;;;12.90;10.43;;;1.70;99.90;;;;;;4976217;28;20265;-71
2021/12/07 08:06:01;;;;;;;9.33;7.93;;;1.80;99.90;;;;;;4978666;28;20269;-71
2021/12/07 08:08:27;;;;;;;10.80;9.70;;;1.80;99.90;;;;;;4989257;28;20212;-71
2021/12/07 08:10:52;;;;;;;9.60;8.60;;;1.90;99.90;;;;;;4984356;28;20178;-72
2021/12/07 08:13:19;;;;;;;13.90;11.37;;;1.80;99.90;;;;;;4970008;28;20649;-72
2021/12/07 08:15:47;;;;;;;11.63;10.37;;;1.80;99.90;;;;;;4986256;28;20593;-72
2021/12/07 08:18:13;;;;;;;12.33;10.37;;;1.80;99.90;;;;;;4982028;28;20255;-72
2021/12/07 08:20:41;;;;;;;12.00;9.10;;;1.90;99.90;;;;;;4984140;28;20194;-72
2021/12/07 08:23:06;;;;;;;12.60;10.93;;;1.80;99.90;;;;;;4995118;28;20175;-73
2021/12/07 08:25:39;;;;;;;13.10;9.47;;;1.80;99.90;;;;;;4982327;28;20594;-72
2021/12/07 08:28:07;;;;;;;8.30;6.67;;;1.90;99.90;;;;;;4983033;28;20361;-73
2021/12/07 08:30:33;;;;;;;10.87;9.73;;;2.00;99.90;;;;;;4981870;28;20174;-73
2021/12/07 08:32:59;;;;;;;6.20;5.17;;;2.00;99.90;;;;;;4984168;28;20266;-73
2021/12/07 08:35:25;;;;;;;11.53;9.90;;;2.10;99.90;;;;;;4980838;28;20191;-72
2021/12/07 08:37:50;;;;;;;8.77;7.97;;;2.20;99.90;;;;;;4978663;28;20272;-72
2021/12/07 08:40:23;;;;;;;10.53;9.50;;;2.20;99.90;;;;;;4984624;28;20185;-73
2021/12/07 08:42:50;;;;;;;12.17;9.80;;;2.20;99.90;;;;;;4980315;28;20185;-73
2021/12/07 08:45:16;;;;;;;9.60;8.60;;;2.30;99.90;;;;;;4982765;28;20198;-73
2021/12/07 08:47:43;;;;;;;9.37;7.30;;;2.30;99.90;;;;;;4985146;28;20283;-73
2021/12/07 08:50:12;;;;;;;11.40;9.70;;;2.40;99.90;;;;;;4985104;28;20202;-72
2021/12/07 08:52:38;;;;;;;11.57;9.13;;;2.30;99.90;;;;;;4988856;28;20560;-74
2021/12/07 09:00:31;;;;;;;5.73;5.17;;;2.60;99.90;;;;;;4986821;28;20240;-74
2021/12/07 09:02:57;;;;;;;9.37;8.10;;;2.60;99.90;;;;;;4987809;28;20605;-74
2021/12/07 09:05:23;;;;;;;9.03;8.13;;;2.50;99.90;;;;;;4981627;28;20187;-73
2021/12/07 09:07:49;;;;;;;6.80;6.10;;;2.50;99.90;;;;;;4987201;28;20775;-73
2021/12/07 09:10:16;;;;;;;7.40;6.47;;;2.50;99.90;;;;;;4994930;28;20201;-72
2021/12/07 09:12:42;;;;;;;9.17;8.23;;;2.50;99.90;;;;;;4992653;28;20553;-72
2021/12/07 09:15:08;;;;;;;12.97;9.47;;;2.50;99.90;;;;;;4987049;28;20182;-72
2021/12/07 09:17:35;;;;;;;9.77;8.50;;;2.40;99.90;;;;;;4992233;28;20211;-72
2021/12/07 09:20:03;;;;;;;9.63;7.87;;;2.40;99.90;;;;;;4983688;28;20202;-73
2021/12/07 09:22:29;;;;;;;6.97;6.37;;;2.60;99.90;;;;;;4987596;28;20195;-72
2021/12/07 09:24:55;;;;;;;6.50;5.90;;;2.70;99.90;;;;;;4980684;28;20536;-73
2021/12/07 09:27:21;;;;;;;9.13;7.77;;;2.80;99.90;;;;;;4988379;28;20292;-72
2021/12/07 09:29:46;;;;;;;9.17;7.73;;;3.00;99.90;;;;;;4983864;28;20965;-73
2021/12/07 09:32:12;;;;;;;7.33;6.70;;;3.10;99.90;;;;;;4979788;28;20676;-73
2021/12/07 09:34:38;;;;;;;5.60;4.60;;;3.10;99.90;;;;;;4984155;28;20198;-72
2021/12/07 09:37:03;;;;;;;7.43;6.77;;;3.10;99.90;;;;;;4987996;28;20238;-73
2021/12/07 09:39:29;;;;;;;8.83;7.43;;;3.00;99.90;;;;;;4979592;28;20190;-72
2021/12/07 09:41:55;;;;;;;9.70;7.93;;;2.90;99.90;;;;;;4984934;28;20656;-72
2021/12/07 09:44:21;;;;;;;7.27;6.53;;;2.90;99.90;;;;;;4987888;28;20209;-72
2021/12/07 09:46:47;;;;;;;9.03;7.37;;;2.90;99.90;;;;;;4985147;28;20194;-73
2021/12/07 09:49:13;;;;;;;5.20;4.67;;;3.00;99.90;;;;;;4984569;28;20205;-72
2021/12/07 09:51:39;;;;;;;8.03;7.23;;;2.90;99.90;;;;;;4982855;28;20187;-73
2021/12/07 09:54:08;;;;;;;6.33;5.57;;;2.90;99.90;;;;;;4999238;28;20178;-75
2021/12/07 09:56:34;;;;;;;6.20;4.70;;;3.00;99.90;;;;;;4986204;28;20183;-76
2021/12/07 09:59:00;;;;;;;6.67;6.07;;;3.00;99.90;;;;;;4986324;28;20269;-75
2021/12/07 10:01:27;;;;;;;6.70;6.00;;;3.00;99.90;;;;;;4988694;28;20185;-76
2021/12/07 10:03:54;;;;;;;8.03;6.10;;;3.00;99.90;;;;;;4989448;28;20265;-76
2021/12/07 10:06:21;;;;;;;8.23;6.23;;;3.10;99.90;;;;;;4989636;28;20663;-75
2021/12/07 10:08:48;;;;;;;3.80;3.50;;;3.20;99.90;;;;;;4972486;28;20296;-76
2021/12/07 10:11:15;;;;;;;5.30;4.80;;;3.30;99.90;;;;;;4987000;28;20174;-71
2021/12/07 10:13:45;;;;;;;4.93;4.53;;;3.30;99.90;;;;;;4986547;28;20727;-74
2021/12/07 10:16:14;;;;;;;4.53;4.23;;;3.40;99.90;;;;;;4984045;28;20270;-74
2021/12/07 10:18:42;;;;;;;6.37;5.77;;;3.40;99.90;;;;;;4984741;28;20691;-73
2021/12/07 10:21:14;;;;;;;3.80;3.47;;;3.40;99.90;;;;;;4981963;28;20198;-71
2021/12/07 10:23:46;;;;;;;5.83;4.87;;;3.40;99.90;;;;;;4976801;28;20304;-73
2021/12/07 10:26:16;;;;;;;5.73;5.07;;;3.40;99.90;;;;;;4986940;28;20191;-74
2021/12/07 10:28:49;;;;;;;6.07;4.53;;;3.40;99.90;;;;;;4966722;28;20248;-73
2021/12/07 10:31:18;;;;;;;6.00;5.40;;;3.40;99.90;;;;;;4971042;28;20269;-73
2021/12/07 10:33:58;;;;;;;5.03;4.63;;;3.40;99.90;;;;;;4988681;28;20269;-73
2021/12/07 10:36:49;;;;;;;3.90;3.33;;;3.40;99.90;;;;;;4986547;28;20182;-73
2021/12/07 10:39:24;;;;;;;4.80;4.37;;;3.50;99.90;;;;;;4978176;28;20193;-71
2021/12/07 10:41:53;;;;;;;8.93;4.40;;;3.40;99.90;;;;;;4985360;28;20182;-75
2021/12/07 10:44:21;;;;;;;5.63;5.13;;;3.40;99.90;;;;;;4975496;28;20276;-74
2021/12/07 10:46:56;;;;;;;6.57;4.57;;;3.30;99.90;;;;;;4990295;28;20222;-73
2021/12/07 10:49:33;;;;;;;6.20;5.07;;;3.40;99.90;;;;;;4987635;28;20208;-73
2021/12/07 10:52:17;;;;;;;6.20;5.67;;;3.30;99.90;;;;;;4985420;28;20630;-73
2021/12/07 10:55:09;;;;;;;4.63;4.23;;;3.20;99.90;;;;;;4990086;28;20669;-73
2021/12/07 10:57:40;;;;;;;3.93;3.57;;;3.10;99.90;;;;;;4995184;28;20271;-73
2021/12/07 11:00:11;;;;;;;4.93;4.23;;;3.10;99.90;;;;;;4992769;28;20645;-73
2021/12/07 11:02:39;;;;;;;5.87;4.47;;;3.10;99.90;;;;;;4998143;28;20189;-73
2021/12/07 11:05:15;;;;;;;6.10;4.90;;;3.30;99.90;;;;;;4988800;28;20741;-74
2021/12/07 11:07:41;;;;;;;7.67;5.63;;;3.40;99.90;;;;;;4985633;28;20224;-73
2021/12/07 11:10:39;;;;;;;5.13;4.47;;;3.60;99.90;;;;;;4984111;28;20206;-73
2021/12/07 11:13:26;;;;;;;3.70;3.40;;;3.60;99.90;;;;;;4982536;28;20193;-74
2021/12/07 11:15:58;;;;;;;3.57;3.30;;;3.50;99.90;;;;;;4978492;28;20210;-73
2021/12/07 11:18:31;;;;;;;5.43;4.93;;;3.40;99.90;;;;;;4981523;28;20208;-74
2021/12/07 11:21:01;;;;;;;4.27;3.87;;;3.40;99.90;;;;;;4992174;28;20202;-74
2021/12/07 11:23:31;;;;;;;3.93;3.60;;;3.40;99.90;;;;;;4991474;28;20186;-73
2021/12/07 11:31:33;;;;;;;3.77;3.47;;;3.70;99.90;;;;;;4992683;28;20239;-74
2021/12/07 11:34:17;;;;;;;3.53;3.23;;;3.90;99.90;;;;;;4988954;28;20186;-76
2021/12/07 11:36:43;;;;;;;5.43;4.90;;;3.90;99.90;;;;;;4995397;28;20589;-74
2021/12/07 11:39:47;;;;;;;5.23;4.60;;;3.80;99.90;;;;;;4984779;28;20269;-71
2021/12/07 11:42:18;;;;;;;5.77;3.60;;;3.80;99.90;;;;;;4967354;28;20263;-71
2021/12/07 11:45:06;;;;;;;4.73;4.10;;;3.80;99.90;;;;;;4992176;28;20209;-74
2021/12/07 11:47:39;;;;;;;6.67;4.87;;;3.80;99.90;;;;;;4994357;28;20209;-76
2021/12/07 11:50:19;;;;;;;4.13;3.73;;;3.70;99.90;;;;;;4967416;28;20233;-71
2021/12/07 11:52:47;;;;;;;3.70;3.40;;;3.80;99.90;;;;;;4992919;28;20189;-72
2021/12/07 11:55:14;;;;;;;4.73;4.13;;;4.00;99.90;;;;;;5004829;28;20552;-70
2021/12/07 11:57:40;;;;;;;2.97;2.77;;;4.40;99.90;;;;;;4978418;28;20211;-72
2021/12/07 12:00:11;;;;;;;4.57;4.00;;;4.90;99.90;;;;;;4991754;28;20289;-72
2021/12/07 12:02:37;;;;;;;5.57;3.57;;;5.20;99.90;;;;;;4986036;28;20198;-71
2021/12/07 12:05:05;;;;;;;2.77;2.53;;;5.50;99.90;;;;;;4982770;28;20241;-71
2021/12/07 12:07:30;;;;;;;3.10;2.90;;;5.70;99.90;;;;;;4982458;28;20232;-71
2021/12/07 12:09:56;;;;;;;3.33;3.03;;;5.50;99.90;;;;;;4983204;28;20685;-74
2021/12/07 12:12:29;;;;;;;7.40;2.93;;;5.60;99.90;;;;;;4981921;28;20185;-72
2021/12/07 12:15:07;;;;;;;3.37;3.17;;;5.80;99.90;;;;;;4981998;28;20240;-72
2021/12/07 12:18:03;;;;;;;3.20;2.90;;;6.70;99.90;;;;;;4984373;28;20205;-72
2021/12/07 12:20:39;;;;;;;3.20;2.90;;;7.60;99.90;;;;;;4987791;28;20197;-72
2021/12/07 12:23:11;;;;;;;3.13;2.90;;;8.60;99.90;;;;;;4983035;28;20204;-72
2021/12/07 12:25:37;;;;;;;4.05;2.95;;;8.00;99.90;;;;;;4980579;28;20232;-71
2021/12/07 12:28:03;;;;;;;4.22;3.08;;;7.40;99.90;;;;;;4985189;28;20214;-71
2021/12/07 12:30:39;;;;;;;4.25;3.17;;;6.70;99.90;;;;;;4990131;28;20203;-71
2021/12/07 12:33:08;;;;;;;3.40;3.17;;;6.30;99.90;;;;;;4988453;28;20179;-74
2021/12/07 12:35:41;;;;;;;3.43;3.23;;;5.90;99.90;;;;;;4990798;28;20177;-75
2021/12/07 12:38:28;;;;;;;5.20;3.63;;;5.70;99.90;;;;;;4991785;28;20199;-75
2021/12/07 12:40:59;;;;;;;3.37;2.90;;;5.70;99.90;;;;;;5007088;28;20178;-74
2021/12/07 12:43:32;;;;;;;3.43;3.07;;;5.60;99.90;;;;;;5000740;28;20178;-74
2021/12/07 12:46:02;;;;;;;3.50;3.20;;;5.70;99.90;;;;;;4997514;28;20261;-75
2021/12/07 12:48:28;;;;;;;2.93;2.73;;;5.60;99.90;;;;;;4990523;28;20693;-71
2021/12/07 12:50:54;;;;;;;3.67;3.00;;;5.60;99.90;;;;;;4990677;28;20263;-71
2021/12/07 12:53:34;;;;;;;4.13;3.20;;;5.60;99.90;;;;;;4990628;28;20193;-70
2021/12/07 12:56:09;;;;;;;4.10;3.10;;;5.50;99.90;;;;;;4989878;28;20661;-72
2021/12/07 12:58:42;;;;;;;5.13;2.93;;;5.50;99.90;;;;;;4983778;28;20206;-72
2021/12/07 13:01:18;;;;;;;4.20;3.07;;;5.40;99.90;;;;;;4989928;28;20332;-72
2021/12/07 13:03:53;;;;;;;3.27;2.93;;;5.50;99.90;;;;;;4989506;28;20185;-71
2021/12/07 13:06:43;;;;;;;3.47;2.90;;;5.60;99.90;;;;;;4989377;28;20184;-74
2021/12/07 13:09:17;;;;;;;3.93;3.00;;;5.70;99.90;;;;;;4977138;28;20212;-75
2021/12/07 13:11:45;;;;;;;3.70;2.57;;;5.90;99.90;;;;;;4977915;28;20272;-74
2021/12/07 13:14:30;;;;;;;2.77;2.50;;;6.00;99.90;;;;;;4987392;28;20174;-73
2021/12/07 13:17:07;;;;;;;3.40;2.60;;;5.80;99.90;;;;;;4975110;28;20224;-73
2021/12/07 13:19:59;;;;;;;3.30;2.97;;;5.50;99.90;;;;;;4971750;28;20188;-72
2021/12/07 13:22:32;;;;;;;4.97;2.90;;;5.40;99.90;;;;;;4985975;28;20317;-72
2021/12/07 13:25:05;;;;;;;3.07;2.00;;;5.30;99.90;;;;;;4986550;28;20588;-76
2021/12/07 13:27:31;;;;;;;4.27;2.10;;;5.10;99.90;;;;;;4963941;28;20735;-71
2021/12/07 13:29:56;;;;;;;5.27;2.70;;;5.10;99.90;;;;;;4985800;28;20206;-71
2021/12/07 13:32:22;;;;;;;3.20;2.67;;;5.10;99.90;;;;;;4984777;28;20233;-72
2021/12/07 13:35:01;;;;;;;3.27;2.40;;;5.10;99.90;;;;;;4987597;28;20236;-73
2021/12/07 13:37:47;;;;;;;5.47;2.80;;;5.30;99.90;;;;;;4985436;28;20215;-74
2021/12/07 13:40:21;;;;;;;6.77;2.97;;;5.40;99.90;;;;;;4984718;28;20194;-72
2021/12/07 13:42:51;;;;;;;3.73;2.90;;;5.30;99.90;;;;;;4984447;28;20190;-73
2021/12/07 13:45:20;;;;;;;3.77;2.93;;;5.50;99.90;;;;;;4985571;28;20253;-74
2021/12/07 13:47:51;;;;;;;6.07;3.10;;;5.60;99.90;;;;;;4985545;28;20217;-74
2021/12/07 13:50:24;;;;;;;2.30;2.10;;;5.80;99.90;;;;;;4989459;28;20220;-75
2021/12/07 13:52:53;;;;;;;6.80;2.97;;;5.90;99.90;;;;;;4988817;28;20274;-73
2021/12/07 13:55:23;;;;;;;3.78;2.65;;;5.80;99.90;;;;;;4993656;28;20181;-75
2021/12/07 13:57:53;;;;;;;2.93;2.53;;;5.50;99.90;;;;;;4990559;28;20245;-73
2021/12/07 14:00:27;;;;;;;2.57;2.37;;;5.20;99.90;;;;;;4994775;28;20178;-75
2021/12/07 14:02:56;;;;;;;3.00;2.80;;;5.00;99.90;;;;;;4995654;28;20189;-75
2021/12/07 14:05:30;;;;;;;4.23;3.13;;;4.80;99.90;;;;;;4979630;28;20213;-73
2021/12/07 14:07:59;;;;;;;3.30;2.97;;;4.60;99.90;;;;;;4988773;28;20213;-73
2021/12/07 14:10:29;;;;;;;4.73;3.63;;;4.40;99.90;;;;;;4994141;28;20201;-72
2021/12/07 14:12:57;;;;;;;6.00;3.57;;;4.20;99.90;;;;;;4992282;28;20182;-72
2021/12/07 14:15:28;;;;;;;7.03;3.23;;;4.00;99.90;;;;;;4996913;28;20533;-73
2021/12/07 14:18:00;;;;;;;3.47;3.17;;;4.00;99.90;;;;;;4975683;28;20230;-73
2021/12/07 14:20:30;;;;;;;3.60;3.20;;;3.90;99.90;;;;;;4993686;28;20283;-73
2021/12/07 14:22:57;;;;;;;4.50;2.90;;;3.80;99.90;;;;;;4989062;28;20453;-73
2021/12/07 14:25:23;;;;;;;5.33;3.10;;;3.80;99.90;;;;;;4986335;28;20213;-72
2021/12/07 14:27:49;;;;;;;3.77;2.80;;;3.70;99.90;;;;;;4986237;28;20198;-71
2021/12/07 14:30:16;;;;;;;5.20;3.47;;;3.60;99.90;;;;;;4989495;28;20700;-71
2021/12/07 14:32:43;;;;;;;4.00;2.73;;;3.60;99.90;;;;;;4983989;28;20186;-68
2021/12/07 14:35:09;;;;;;;5.70;3.40;;;3.50;99.90;;;;;;4983229;28;20209;-68
2021/12/07 14:37:35;;;;;;;4.37;2.87;;;3.50;99.90;;;;;;4983318;28;20198;-69
2021/12/07 14:40:01;;;;;;;5.43;3.77;;;3.60;99.90;;;;;;4981757;28;20195;-69
2021/12/07 14:42:28;;;;;;;7.53;3.17;;;3.60;99.90;;;;;;4982140;28;20209;-70